Site contains unofficial IBTrACS data. Visit the IBTrACS Website to access archived data.

2000 Severe Tropical Cyclone KIRRILY (2000024S12100)


IBTrACS version v04r00. Visit IBTrACS website for data access.
Please direct all questions to the IBTrACS Q and A forum

Storm track - Intensity - Wind Radii - Intensity Data - Source Data - All data

Summary Information

Satellite image near maximum intensity
Storm ID 2000024S12100
Start Jan 24 04Z
Max Intensity 85 kt (Jan 29 12Z), 975 mb (Jan 29 03Z)
End Feb 1 22Z
ATCF IDs ,SH092000
Track status Best track data.

Storm track plot

Map of storm track

Intensity plots

Map of storm track

Radial wind information

Map of storm track

Position and Intensity Table

BASIN ISO_TIME_________ NATURE LAT LON WMO WIND WMO PRES USA WIND BOM WIND BOM PRES NEUMANN WIND
degrees north degrees east kts mb kts kts mb kts
SI 2000-01-24 04:00:00 NR -11.50 99.80 25 1000 25 1000
SI 06:00:00 NR -11.49 100.19 25 1000
SI 09:00:00 NR -11.49 100.79 25 1000
SI 10:00:00 NR -11.50 101.00 25 1000 25 1000
SI 12:00:00 TS -11.63 101.82 25 25 1000 25
SI 15:00:00 TS -11.77 102.49 22 25 1000 22
SI 16:00:00 TS -11.83 102.72 25 1000 21 25 1000 21
SI 18:00:00 TS -11.94 103.03 20 25 1000 20
SI 21:00:00 TS -12.10 103.46 20 25 1000 20
SI 22:00:00 TS -12.16 103.62 25 1000 20 25 1000 20
SI 2000-01-25 00:00:00 TS -12.29 103.97 20 25 1000 20
SI 03:00:00 TS -12.48 104.62 22 25 1000 22
SI 04:00:00 TS -12.54 104.85 25 1000 23 25 1000 23
SI 06:00:00 TS -12.65 105.30 25 25 1000 25
SI 09:00:00 TS -12.79 105.82 25 25 1000 25
SI 10:00:00 TS -12.83 105.97 25 1000 25 25 1000 25
SI 12:00:00 TS -12.88 106.24 25 25 1000 25
SI 15:00:00 TS -12.94 106.61 25 25 1000 25
SI 16:00:00 TS -12.97 106.75 25 1000 25 25 1000 25
SI 18:00:00 TS -13.06 107.09 25 25 1000 25
SI 21:00:00 TS -13.26 107.77 25 25 1000 25
SI 22:00:00 TS -13.34 108.01 25 1000 25 25 1000 25
SI 2000-01-26 00:00:00 TS -13.51 108.51 25 25 1000 25
SI 03:00:00 TS -13.78 109.20 25 25 1000 25
SI 04:00:00 TS -13.89 109.42 25 1000 25 25 1000 25
SI 06:00:00 TS -14.13 109.81 25 26 999 25
SI 09:00:00 TS -14.54 110.28 25 29 998 25
SI 10:00:00 TS -14.68 110.42 30 998 25 30 998 25
SI 12:00:00 TS -14.95 110.68 25 31 997 25
SI 15:00:00 TS -15.33 111.10 25 34 995 25
SI 16:00:00 TS -15.46 111.24 35 995 25 35 995 25
SI 18:00:00 TS -15.73 111.52 25 35 995 25
SI 21:00:00 TS -16.10 111.93 25 35 995 25
SI 22:00:00 TS -16.21 112.05 35 995 25 35 995 25
SI 2000-01-27 00:00:00 TS -16.44 112.24 25 35 995 25
SI 03:00:00 TS -16.75 112.40 27 35 995 27
SI 04:00:00 TS -16.84 112.42 35 995 28 35 995 28
SI 06:00:00 TS -17.02 112.43 30 36 993 30
SI 09:00:00 TS -17.30 112.38 30 39 990 30
SI 10:00:00 TS -17.39 112.33 40 990 30 40 990 30
SI 12:00:00 TS -17.58 112.19 30 43 988 30
SI 15:00:00 TS -17.83 111.92 30 48 985 30
SI 16:00:00 TS -17.90 111.82 50 985 30 50 985 30
SI 18:00:00 TS -18.01 111.58 30 50 985 30
SI 21:00:00 TS -18.16 111.17 32 50 985 32
SI 22:00:00 TS -18.20 111.03 50 985 33 50 985 33
SI 2000-01-28 00:00:00 TS -18.28 110.76 35 50 985 35
SI 03:00:00 TS -18.37 110.38 42 50 985 42
SI 04:00:00 TS -18.40 110.26 50 985 45 50 985 45
SI 06:00:00 TS -18.49 110.02 50 53 985 50
SI 09:00:00 TS -18.66 109.71 52 58 985 52
SI 10:00:00 TS -18.72 109.61 60 985 53 60 985 53
SI 12:00:00 TS -18.85 109.42 55 61 985 55
SI 15:00:00 TS -19.03 109.13 60 64 985 60
SI 16:00:00 TS -19.10 109.03 65 985 61 65 985 61
SI 18:00:00 TS -19.25 108.83 65 68 983 65
SI 21:00:00 TS -19.49 108.51 67 73 980 67
SI 22:00:00 TS -19.58 108.41 75 980 68 75 980 68
SI 2000-01-29 00:00:00 TS -19.76 108.20 70 75 978 70
SI 03:00:00 TS -20.03 107.86 75 75 975 75
SI 04:00:00 TS -20.13 107.75 75 975 76 75 975 76
SI 06:00:00 TS -20.32 107.53 80 73 975 80
SI 09:00:00 TS -20.61 107.25 82 70 975 82
SI 10:00:00 TS -20.71 107.17 70 975 83 70 975 83
SI 12:00:00 TS -20.90 107.01 85 66 975 85
SI 15:00:00 TS -21.17 106.76 80 61 975 80
SI 16:00:00 TS -21.26 106.67 60 975 78 60 975 78
SI 18:00:00 TS -21.41 106.51 75 60 975 75
SI 21:00:00 TS -21.63 106.28 72 60 975 72
SI 22:00:00 TS -21.71 106.21 60 975 71 60 975 71
SI 2000-01-30 00:00:00 TS -21.88 106.07 70 58 976 70
SI 03:00:00 TS -22.20 105.87 67 55 979 67
SI 04:00:00 TS -22.31 105.82 55 980 66 55 980 66
SI 06:00:00 TS -22.57 105.74 65 55 980 65
SI 09:00:00 TS -22.92 105.69 65 55 980 65
SI 10:00:00 TS -23.01 105.68 55 980 65 55 980 65
SI 12:00:00 TS -23.14 105.67 65 53 981 65
SI 15:00:00 TS -23.25 105.63 60 50 984 60
SI 16:00:00 TS -23.27 105.62 50 985 58 50 985 58
SI 18:00:00 TS -23.32 105.59 55 46 986 55
SI 21:00:00 TS -23.40 105.54 50 41 989 50
SI 22:00:00 TS -23.42 105.53 40 990 48 40 990 48
SI 2000-01-31 00:00:00 TS -23.45 105.49 45 40 990 45
SI 03:00:00 TS -23.49 105.40 40 40 990 40
SI 04:00:00 TS -23.49 105.38 40 990 38 40 990 38
SI 06:00:00 TS -23.47 105.34 35 38 991 35
SI 09:00:00 TS -23.36 105.30 35 35 994 35
SI 10:00:00 TS -23.31 105.29 35 995 35 35 995 35
SI 12:00:00 TS -23.20 105.24 35 33 996 35
SI 15:00:00 TS -23.06 105.13 35 30 999 35
SI 16:00:00 TS -23.01 105.09 30 1000 35 30 1000 35
SI 18:00:00 TS -22.92 105.00 35 35
SI 21:00:00 TS -22.77 104.88 32 32
SI 2000-02-01 00:00:00 TS -22.64 104.73 30 30
SI 03:00:00 TS -22.54 104.53 30 30
SI 06:00:00 TS -22.46 104.30 30 30
SI 09:00:00 TS -22.36 104.10 30 30
SI 12:00:00 TS -22.29 103.98 30 30
SI 15:00:00 TS -22.30 103.96 27 27
SI 18:00:00 TS -22.35 104.01 25 25
SI 21:00:00 NR -22.69 104.79
SI 22:00:00 NR -22.70 104.80 25 1000 25 1000

Source Information

Agency Information
USA bsh092000.txt
TOKYO
CMA
HKO
NEWDELHI
REUNION
BOM IDCKMSTM0S.csv:Line=20484:KIRRILY
NADI
WELLINGTON
DS824
TD9636
TD9635
NEUMANN tracks.sh:Storm=1183:KIRRILY:09S:BSH092000
MLC

All available IBTrACS Data

SEASON BASIN SUBBASIN ISO_TIME_________ NATURE LAT LON WMO WIND WMO PRES WMO AGENCY DIST2LAND LANDFALL IFLAG USA AGENCY USA ATCF_ID USA LAT USA LON USA WIND USA SSHS BOM LAT BOM LON BOM TYPE BOM WIND BOM PRES BOM CI BOM ROCI BOM POCI BOM POS_METHOD BOM PRES_METHOD NEUMANN LAT NEUMANN LON NEUMANN CLASS NEUMANN WIND STORM SPEED STORM DIR
Year degrees north degrees east kts mb km km degrees north degrees east kts 1 degrees north degrees east kts mb 1 nmile mb degrees north degrees east kts kts degrees
2000 SI WA 2000-01-24 04:00:00 NR -11.50 99.80 25 1000 bom 793 760 ______O_______ -1 -11.50 99.80 20 25 1000 2.00 161 1008 3 5 11 88
2000 SI WA 06:00:00 NR -11.49 100.19 760 714 ______P_______ -1 -11.49 100.19 20 25 1000 161 1008 12 89
2000 SI WA 09:00:00 NR -11.49 100.79 714 700 ______P_______ -1 -11.49 100.79 20 25 1000 161 1008 12 91
2000 SI WA 10:00:00 NR -11.50 101.00 25 1000 bom 700 654 ______O_______ -1 -11.50 101.00 20 25 1000 2.00 161 1008 3 5 20 98
2000 SI WA 12:00:00 TS -11.63 101.82 654 629 O_____P_____O_ jtwc_sh SH092000 -11.80 102.60 25 -1 -11.54 101.43 20 25 1000 161 1008 -11.80 102.60 TC 25 18 100
2000 SI WA 15:00:00 TS -11.77 102.49 633 623 P_____P_____P_ SH092000 -11.89 102.89 22 -1 -11.65 102.09 20 25 1000 161 1008 -11.89 102.89 TC 22 14 103
2000 SI WA 16:00:00 TS -11.83 102.72 25 1000 bom 623 620 P_____O_____P_ SH092000 -11.92 102.99 21 -1 -11.70 102.30 20 25 1000 2.00 161 1008 3 5 -11.92 102.99 TC 21 11 107
2000 SI WA 18:00:00 TS -11.94 103.03 620 616 O_____P_____O_ jtwc_sh SH092000 -12.00 103.20 20 -1 -11.81 102.70 20 25 1000 161 1008 -12.00 103.20 TC 20 9 110
2000 SI WA 21:00:00 TS -12.10 103.46 615 609 P_____P_____P_ SH092000 -12.14 103.55 20 -1 -12.02 103.30 20 25 1000 161 1008 -12.14 103.55 TC 20 9 111
2000 SI WA 22:00:00 TS -12.16 103.62 25 1000 bom 619 608 P_____O_____P_ SH092000 -12.19 103.68 20 -1 -12.10 103.50 20 25 1000 2.00 161 1008 3 5 -12.19 103.68 TC 20 11 110
2000 SI WA 2000-01-25 00:00:00 TS -12.29 103.97 608 597 O_____P_____O_ jtwc_sh SH092000 -12.30 104.00 20 -1 -12.26 103.92 20 25 1000 161 1008 -12.30 104.00 TC 20 12 108
2000 SI WA 03:00:00 TS -12.48 104.62 604 597 P_____P_____P_ SH092000 -12.46 104.65 22 -1 -12.52 104.58 20 25 1000 161 1008 -12.46 104.65 TC 22 13 106
2000 SI WA 04:00:00 TS -12.54 104.85 25 1000 bom 594 594 P_____O_____P_ SH092000 -12.51 104.88 23 -1 -12.60 104.80 20 25 1000 2.00 161 1008 3 5 -12.51 104.88 TC 23 14 105
2000 SI WA 06:00:00 TS -12.65 105.30 605 598 O_____P_____O_ jtwc_sh SH092000 -12.60 105.30 25 -1 -12.76 105.29 20 25 1000 161 1008 -12.60 105.30 TC 25 12 105
2000 SI WA 09:00:00 TS -12.79 105.82 608 607 P_____P_____P_ SH092000 -12.71 105.74 25 -1 -12.95 105.99 20 25 1000 161 1008 -12.71 105.74 TC 25 10 105
2000 SI WA 10:00:00 TS -12.83 105.97 25 1000 bom 604 600 P_____O_____P_ SH092000 -12.74 105.86 25 -1 -13.00 106.20 20 25 1000 2.00 161 1008 3 5 -12.74 105.86 TC 25 8 103
2000 SI WA 12:00:00 TS -12.88 106.24 608 597 O_____P_____O_ jtwc_sh SH092000 -12.80 106.10 25 -1 -13.05 106.52 20 25 1000 161 1008 -12.80 106.10 TC 25 8 101
2000 SI WA 15:00:00 TS -12.94 106.61 597 597 P_____P_____P_ SH092000 -12.88 106.45 25 -1 -13.08 106.95 20 25 1000 161 1008 -12.88 106.45 TC 25 8 100
2000 SI WA 16:00:00 TS -12.97 106.75 25 1000 bom 603 598 P_____O_____P_ SH092000 -12.91 106.58 25 -1 -13.10 107.10 20 25 1000 2.00 161 1008 3 5 -12.91 106.58 TC 25 10 104
2000 SI WA 18:00:00 TS -13.06 107.09 609 603 O_____P_____O_ jtwc_sh SH092000 -13.00 106.90 25 -1 -13.17 107.48 20 25 1000 161 1008 -13.00 106.90 TC 25 12 106
2000 SI WA 21:00:00 TS -13.26 107.77 619 617 P_____P_____P_ SH092000 -13.22 107.60 25 -1 -13.33 108.09 20 25 1000 161 1008 -13.22 107.60 TC 25 14 107
2000 SI WA 22:00:00 TS -13.34 108.01 25 1000 bom 617 617 P_____O_____P_ SH092000 -13.31 107.87 25 -1 -13.40 108.30 20 25 1000 2.00 161 1008 3 5 -13.31 107.87 TC 25 15 109
2000 SI WA 2000-01-26 00:00:00 TS -13.51 108.51 638 635 O_____P_____O_ jtwc_sh SH092000 -13.50 108.40 25 -1 -13.53 108.72 20 25 1000 161 1008 -13.50 108.40 TC 25 15 111
2000 SI WA 03:00:00 TS -13.78 109.20 648 645 P_____P_____P_ SH092000 -13.78 109.15 25 -1 -13.79 109.32 20 25 1000 161 1008 -13.78 109.15 TC 25 14 113
2000 SI WA 04:00:00 TS -13.89 109.42 25 1000 bom 653 651 P_____O_____P_ SH092000 -13.88 109.38 25 -1 -13.90 109.50 20 25 1000 2.00 161 1008 3 5 -13.88 109.38 TC 25 14 120
2000 SI WA 06:00:00 TS -14.13 109.81 667 667 O_____P_____O_ jtwc_sh SH092000 -14.10 109.80 25 -1 -14.18 109.83 20 26 999 161 1008 -14.10 109.80 TC 25 13 128
2000 SI WA 09:00:00 TS -14.54 110.28 699 699 P_____P_____P_ SH092000 -14.48 110.29 25 -1 -14.65 110.27 20 29 998 161 1008 -14.48 110.29 TC 25 12 133
2000 SI WA 10:00:00 TS -14.68 110.42 30 998 bom 719 717 P_____O_____P_ SH092000 -14.62 110.43 25 -1 -14.80 110.40 20 30 998 2.50 161 1008 3 5 -14.62 110.43 TC 25 11 136
2000 SI WA 12:00:00 TS -14.95 110.68 736 736 O_____P_____O_ jtwc_sh SH092000 -14.90 110.70 25 -1 -15.04 110.64 20 31 997 161 1008 -14.90 110.70 TC 25 11 134
2000 SI WA 15:00:00 TS -15.33 111.10 775 775 P_____P_____P_ SH092000 -15.31 111.17 25 -1 -15.38 110.98 20 34 995 161 1008 -15.31 111.17 TC 25 11 133
2000 SI WA 16:00:00 TS -15.46 111.24 35 995 bom 774 741 P_____O_____P_ SH092000 -15.44 111.32 25 -1 -15.50 111.10 30 35 995 3.00 161 1008 3 5 -15.44 111.32 TC 25 11 134
2000 SI WA 18:00:00 TS -15.73 111.52 741 685 O_____P_____O_ jtwc_sh SH092000 -15.70 111.60 25 -1 -15.78 111.37 30 35 995 169 1008 -15.70 111.60 TC 25 11 134
2000 SI WA 21:00:00 TS -16.10 111.93 685 671 P_____P_____P_ SH092000 -16.06 112.01 25 -1 -16.18 111.78 30 35 995 183 1008 -16.06 112.01 TC 25 11 134
2000 SI WA 22:00:00 TS -16.21 112.05 35 995 bom 671 643 P_____O_____P_ SH092000 -16.17 112.12 25 -1 -16.30 111.90 30 35 995 3.00 188 1008 3 5 -16.17 112.12 TC 25 9 139
2000 SI WA 2000-01-27 00:00:00 TS -16.44 112.24 643 605 O_____P_____O_ jtwc_sh SH092000 -16.40 112.30 25 -1 -16.51 112.12 30 35 995 188 1008 -16.40 112.30 TC 25 8 148
2000 SI WA 03:00:00 TS -16.75 112.40 605 594 P_____P_____P_ SH092000 -16.75 112.42 27 -1 -16.74 112.35 30 35 995 188 1008 -16.75 112.42 TC 27 7 158
2000 SI WA 04:00:00 TS -16.84 112.42 35 995 bom 594 573 P_____O_____P_ SH092000 -16.87 112.42 28 -1 -16.80 112.40 30 35 995 3.00 188 1008 3 5 -16.87 112.42 TC 28 6 173
2000 SI WA 06:00:00 TS -17.02 112.43 573 541 O_____P_____O_ jtwc_sh SH092000 -17.10 112.40 30 -1 -16.87 112.49 30 36 993 188 1008 -17.10 112.40 TC 30 6 185
2000 SI WA 09:00:00 TS -17.30 112.38 541 530 P_____P_____P_ SH092000 -17.47 112.34 30 -1 -16.96 112.46 30 39 990 188 1008 -17.47 112.34 TC 30 6 194
2000 SI WA 10:00:00 TS -17.39 112.33 40 990 bom 533 516 P_____O_____P_ SH092000 -17.59 112.30 30 -1 -17.00 112.40 30 40 990 3.00 188 1008 3 5 -17.59 112.30 TC 30 7 212
2000 SI WA 12:00:00 TS -17.58 112.19 516 504 O_____P_____O_ jtwc_sh SH092000 -17.80 112.20 30 -1 -17.15 112.18 30 43 988 188 1008 -17.80 112.20 TC 30 7 222
2000 SI WA 15:00:00 TS -17.83 111.92 508 498 P_____P_____P_ SH092000 -18.04 112.04 30 -1 -17.41 111.68 30 48 985 188 1008 -18.04 112.04 TC 30 7 228
2000 SI WA 16:00:00 TS -17.90 111.82 50 985 bom 503 498 P_____O_____P_ SH092000 -18.10 111.98 30 -1 -17.50 111.50 30 50 985 3.50 188 1008 3 5 -18.10 111.98 TC 30 7 240
2000 SI WA 18:00:00 TS -18.01 111.58 503 498 O_____P_____O_ jtwc_sh SH092000 -18.20 111.80 30 -1 -17.64 111.15 30 50 985 188 1008 -18.20 111.80 TC 30 8 247
2000 SI WA 21:00:00 TS -18.16 111.17 506 506 P_____P_____P_ SH092000 -18.32 111.44 32 -1 -17.84 110.64 30 50 985 188 1009 -18.32 111.44 TC 32 8 250
2000 SI WA 22:00:00 TS -18.20 111.03 50 985 bom 519 516 P_____O_____P_ SH092000 -18.35 111.30 33 -1 -17.90 110.50 30 50 985 3.50 188 1010 3 5 -18.35 111.30 TC 33 8 254
2000 SI WA 2000-01-28 00:00:00 TS -18.28 110.76 523 523 O_____P_____O_ jtwc_sh SH092000 -18.40 111.00 35 0 -18.03 110.29 30 50 985 188 1010 -18.40 111.00 TC 35 8 255
2000 SI WA 03:00:00 TS -18.37 110.38 542 542 P_____P_____P_ SH092000 -18.44 110.54 42 0 -18.23 110.06 30 50 985 188 1010 -18.44 110.54 TC 42 7 255
2000 SI WA 04:00:00 TS -18.40 110.26 50 985 bom 549 549 P_____O_____P_ SH092000 -18.46 110.39 45 0 -18.30 110.00 30 50 985 3.50 188 1010 3 5 -18.46 110.39 TC 45 7 251
2000 SI WA 06:00:00 TS -18.49 110.02 564 564 O_____P_____O_ jtwc_sh SH092000 -18.50 110.10 50 0 -18.46 109.86 30 53 985 188 1010 -18.50 110.10 TC 50 7 244
2000 SI WA 09:00:00 TS -18.66 109.71 573 573 P_____P_____P_ SH092000 -18.63 109.73 52 0 -18.72 109.67 30 58 985 188 1010 -18.63 109.73 TC 52 7 239
2000 SI WA 10:00:00 TS -18.72 109.61 60 985 bom 581 574 P_____O_____P_ SH092000 -18.68 109.61 53 0 -18.80 109.60 30 60 985 4.00 188 1010 3 5 -18.68 109.61 TC 53 7 236
2000 SI WA 12:00:00 TS -18.85 109.42 591 585 O_____P_____O_ jtwc_sh SH092000 -18.80 109.40 55 0 -18.94 109.45 30 61 985 188 1010 -18.80 109.40 TC 55 7 236
2000 SI WA 15:00:00 TS -19.03 109.13 604 598 P_____P_____P_ SH092000 -18.98 109.09 60 0 -19.13 109.20 30 64 985 188 1010 -18.98 109.09 TC 60 7 235
2000 SI WA 16:00:00 TS -19.10 109.03 65 985 bom 607 601 P_____O_____P_ SH092000 -19.05 108.99 61 0 -19.20 109.10 40 65 985 4.50 188 1010 3 5 -19.05 108.99 TC 61 7 232
2000 SI WA 18:00:00 TS -19.25 108.83 614 614 O_____P_____O_ jtwc_sh SH092000 -19.20 108.80 65 1 -19.36 108.88 40 68 983 188 1010 -19.20 108.80 TC 65 8 231
2000 SI WA 21:00:00 TS -19.49 108.51 631 631 P_____P_____P_ SH092000 -19.43 108.51 67 1 -19.61 108.52 40 73 980 188 1010 -19.43 108.51 TC 67 8 230
2000 SI WA 22:00:00 TS -19.58 108.41 75 980 bom 635 635 P_____O_____P_ SH092000 -19.52 108.41 68 1 -19.70 108.40 40 75 980 4.50 188 1010 3 5 -19.52 108.41 TC 68 8 228
2000 SI WA 2000-01-29 00:00:00 TS -19.76 108.20 641 641 O_____P_____O_ jtwc_sh SH092000 -19.70 108.20 70 1 -19.87 108.19 40 75 978 188 1010 -19.70 108.20 TC 70 8 229
2000 SI WA 03:00:00 TS -20.03 107.86 657 657 P_____P_____P_ SH092000 -19.99 107.84 75 1 -20.12 107.90 40 75 975 188 1010 -19.99 107.84 TC 75 8 228
2000 SI WA 04:00:00 TS -20.13 107.75 75 975 bom 671 666 P_____O_____P_ SH092000 -20.09 107.72 76 1 -20.20 107.80 40 75 975 4.50 188 1010 4 5 -20.09 107.72 TC 76 8 227
2000 SI WA 06:00:00 TS -20.32 107.53 681 677 O_____P_____O_ jtwc_sh SH092000 -20.30 107.50 80 1 -20.36 107.59 40 73 975 188 1010 -20.30 107.50 TC 80 8 224
2000 SI WA 09:00:00 TS -20.61 107.25 688 688 P_____P_____P_ SH092000 -20.61 107.23 82 1 -20.61 107.29 40 70 975 188 1010 -20.61 107.23 TC 82 8 221
2000 SI WA 10:00:00 TS -20.71 107.17 70 975 bom 694 694 P_____O_____P_ SH092000 -20.71 107.16 83 2 -20.70 107.20 40 70 975 4.50 188 1010 4 5 -20.71 107.16 TC 83 7 218
2000 SI WA 12:00:00 TS -20.90 107.01 707 704 O_____P_____O_ jtwc_sh SH092000 -20.90 107.00 85 2 -20.90 107.03 40 66 975 188 1010 -20.90 107.00 TC 85 7 220
2000 SI WA 15:00:00 TS -21.17 106.76 718 718 P_____P_____P_ SH092000 -21.16 106.74 80 1 -21.21 106.78 40 61 975 188 1010 -21.16 106.74 TC 80 7 221
2000 SI WA 16:00:00 TS -21.26 106.67 60 975 bom 726 726 P_____O_____P_ SH092000 -21.24 106.66 78 1 -21.30 106.70 30 60 975 4.00 188 1010 4 5 -21.24 106.66 TC 78 7 224
2000 SI WA 18:00:00 TS -21.41 106.51 743 741 O_____P_____O_ jtwc_sh SH092000 -21.40 106.50 75 1 -21.44 106.53 30 60 975 188 1010 -21.40 106.50 TC 75 6 224
2000 SI WA 21:00:00 TS -21.63 106.28 760 758 P_____P_____P_ SH092000 -21.63 106.28 72 1 -21.63 106.28 30 60 975 188 1011 -21.63 106.28 TC 72 6 223
2000 SI WA 22:00:00 TS -21.71 106.21 60 975 bom 768 766 P_____O_____P_ SH092000 -21.72 106.22 71 1 -21.70 106.20 30 60 975 4.00 188 1012 4 5 -21.72 106.22 TC 71 6 219
2000 SI WA 2000-01-30 00:00:00 TS -21.88 106.07 775 775 O_____P_____O_ jtwc_sh SH092000 -21.90 106.10 70 1 -21.84 106.01 30 58 976 188 1012 -21.90 106.10 TC 70 7 213
2000 SI WA 03:00:00 TS -22.20 105.87 792 792 P_____P_____P_ SH092000 -22.25 105.93 67 1 -22.09 105.76 30 55 979 188 1012 -22.25 105.93 TC 67 7 208
2000 SI WA 04:00:00 TS -22.31 105.82 55 980 bom 801 800 P_____O_____P_ SH092000 -22.37 105.88 66 1 -22.20 105.70 30 55 980 4.00 188 1012 3 5 -22.37 105.88 TC 66 8 197
2000 SI WA 06:00:00 TS -22.57 105.74 809 801 O_____P_____O_ jtwc_sh SH092000 -22.60 105.80 65 1 -22.51 105.63 30 55 980 188 1012 -22.60 105.80 TC 65 7 191
2000 SI WA 09:00:00 TS -22.92 105.69 801 798 P_____P_____P_ SH092000 -22.89 105.73 65 1 -22.98 105.60 30 55 980 188 1012 -22.89 105.73 TC 65 7 186
2000 SI WA 10:00:00 TS -23.01 105.68 55 980 bom 798 796 P_____O_____P_ SH092000 -22.97 105.72 65 1 -23.10 105.60 30 55 980 4.00 188 1012 3 5 -22.97 105.72 TC 65 4 186
2000 SI WA 12:00:00 TS -23.14 105.67 796 794 O_____P_____O_ jtwc_sh SH092000 -23.10 105.70 65 1 -23.22 105.60 30 53 981 188 1012 -23.10 105.70 TC 65 3 191
2000 SI WA 15:00:00 TS -23.25 105.63 804 802 P_____P_____P_ SH092000 -23.23 105.65 60 0 -23.29 105.60 30 50 984 188 1012 -23.23 105.65 TC 60 2 197
2000 SI WA 16:00:00 TS -23.27 105.62 50 985 bom 802 802 P_____O_____P_ SH092000 -23.26 105.63 58 0 -23.30 105.60 30 50 985 3.50 188 1012 3 5 -23.26 105.63 TC 58 2 211
2000 SI WA 18:00:00 TS -23.32 105.59 802 800 O_____P_____O_ jtwc_sh SH092000 -23.30 105.60 55 0 -23.37 105.57 30 46 986 188 1012 -23.30 105.60 TC 55 2 209
2000 SI WA 21:00:00 TS -23.40 105.54 810 810 P_____P_____P_ SH092000 -23.36 105.56 50 0 -23.47 105.52 30 41 989 188 1012 -23.36 105.56 TC 50 2 211
2000 SI WA 22:00:00 TS -23.42 105.53 40 990 bom 810 810 P_____O_____P_ SH092000 -23.38 105.54 48 0 -23.50 105.50 30 40 990 3.00 188 1012 3 5 -23.38 105.54 TC 48 1 231
2000 SI WA 2000-01-31 00:00:00 TS -23.45 105.49 808 808 O_____P_____O_ jtwc_sh SH092000 -23.40 105.50 45 0 -23.55 105.46 30 40 990 188 1012 -23.40 105.50 TC 45 2 240
2000 SI WA 03:00:00 TS -23.49 105.40 818 818 P_____P_____P_ SH092000 -23.43 105.40 40 0 -23.60 105.41 30 40 990 188 1012 -23.43 105.40 TC 40 2 252
2000 SI WA 04:00:00 TS -23.49 105.38 40 990 bom 818 818 P_____O_____P_ SH092000 -23.43 105.36 38 0 -23.60 105.40 30 40 990 3.00 188 1012 3 5 -23.43 105.36 TC 38 1 290
2000 SI WA 06:00:00 TS -23.47 105.34 828 828 O_____P_____O_ jtwc_sh SH092000 -23.40 105.30 35 0 -23.60 105.41 30 38 991 188 1012 -23.40 105.30 TC 35 2 331
2000 SI WA 09:00:00 TS -23.36 105.30 830 830 P_____P_____P_ SH092000 -23.26 105.25 35 0 -23.54 105.41 30 35 994 188 1012 -23.26 105.25 TC 35 3 350
2000 SI WA 10:00:00 TS -23.31 105.29 35 995 bom 832 832 P_____O_____P_ SH092000 -23.21 105.24 35 0 -23.50 105.40 30 35 995 3.00 188 1012 3 5 -23.21 105.24 TC 35 3 343
2000 SI WA 12:00:00 TS -23.20 105.24 844 844 O_____P_____O_ jtwc_sh SH092000 -23.10 105.20 35 0 -23.39 105.32 30 33 996 179 1012 -23.10 105.20 TC 35 3 330
2000 SI WA 15:00:00 TS -23.06 105.13 856 856 P_____P_____P_ SH092000 -23.00 105.12 35 0 -23.17 105.16 30 30 999 165 1012 -23.00 105.12 TC 35 3 323
2000 SI WA 16:00:00 TS -23.01 105.09 30 1000 bom 858 858 P_____O_____P_ SH092000 -22.97 105.08 35 0 -23.10 105.10 20 30 1000 2.50 161 1012 3 5 -22.97 105.08 TC 35 4 319
2000 SI WA 18:00:00 TS -22.92 105.00 871 871 O_____P_____O_ jtwc_sh SH092000 -22.90 105.00 35 0 -22.97 105.00 20 -22.90 105.00 TC 35 4 321
2000 SI WA 21:00:00 TS -22.77 104.88 883 883 P_____P_____P_ SH092000 -22.75 104.88 32 -1 -22.82 104.88 20 -22.75 104.88 TC 32 4 319
2000 SI WA 2000-02-01 00:00:00 TS -22.64 104.73 909 909 O_____P_____O_ jtwc_sh SH092000 -22.60 104.70 30 -1 -22.71 104.79 20 -22.60 104.70 TC 30 4 305
2000 SI WA 03:00:00 TS -22.54 104.53 931 931 P_____P_____P_ SH092000 -22.50 104.42 30 -1 -22.63 104.74 20 -22.50 104.42 TC 30 4 293
2000 SI WA 06:00:00 TS -22.46 104.30 951 951 O_____P_____O_ jtwc_sh SH092000 -22.40 104.10 30 -1 -22.59 104.71 20 -22.40 104.10 TC 30 4 295
2000 SI WA 09:00:00 TS -22.36 104.10 974 974 P_____P_____P_ SH092000 -22.25 103.80 30 -1 -22.58 104.70 20 -22.25 103.80 TC 30 3 300
2000 SI WA 12:00:00 TS -22.29 103.98 986 986 O_____P_____O_ jtwc_sh SH092000 -22.10 103.50 30 -1 -22.58 104.70 20 -22.10 103.50 TC 30 1 297
2000 SI WA 15:00:00 TS -22.30 103.96 986 986 P_____P_____P_ SH092000 -21.99 103.20 27 -1 -22.61 104.72 20 -21.99 103.20 TC 27 1 140
2000 SI WA 18:00:00 TS -22.35 104.01 986 896 O_____P_____O_ jtwc_sh SH092000 -21.90 102.90 25 -1 -22.64 104.75 20 -21.90 102.90 TC 25 9 117
2000 SI WA 21:00:00 NR -22.69 104.79 896 896 ______P_______ SH092000 -1 -22.69 104.79 20 TC 12 116
2000 SI WA 22:00:00 NR -22.70 104.80 25 1000 bom 896 ______O_______ SH092000 -1 -22.70 104.80 20 25 1000 2.00 161 1012 3 5 TC 1 0